sensor_id;sensor_type;location;lat;lon;timestamp;pressure;altitude;pressure_sealevel;temperature;humidity
19624;BME280;9959;49.798;9.928;2023-03-13T00:01:09;99063.38;;;7.26;91.29
19624;BME280;9959;49.798;9.928;2023-03-13T00:03:41;99061.31;;;7.22;91.50
19624;BME280;9959;49.798;9.928;2023-03-13T00:06:09;99060.91;;;7.25;91.58
19624;BME280;9959;49.798;9.928;2023-03-13T00:08:37;99059.44;;;7.16;92.14
19624;BME280;9959;49.798;9.928;2023-03-13T00:11:06;99058.03;;;7.33;90.96
19624;BME280;9959;49.798;9.928;2023-03-13T00:13:33;99059.66;;;7.27;91.15
19624;BME280;9959;49.798;9.928;2023-03-13T00:16:05;99054.28;;;7.21;91.51
19624;BME280;9959;49.798;9.928;2023-03-13T00:18:32;99045.25;;;7.28;90.76
19624;BME280;9959;49.798;9.928;2023-03-13T00:21:12;99040.91;;;7.21;91.23
19624;BME280;9959;49.798;9.928;2023-03-13T00:23:39;99041.13;;;7.26;91.17
19624;BME280;9959;49.798;9.928;2023-03-13T00:26:11;99037.22;;;7.61;89.17
19624;BME280;9959;49.798;9.928;2023-03-13T00:28:39;99032.03;;;7.66;87.77
19624;BME280;9959;49.798;9.928;2023-03-13T00:31:30;99023.19;;;7.46;89.02
19624;BME280;9959;49.798;9.928;2023-03-13T00:34:02;99028.75;;;7.64;87.35
19624;BME280;9959;49.798;9.928;2023-03-13T00:36:32;99018.63;;;7.73;86.83
19624;BME280;9959;49.798;9.928;2023-03-13T00:38:59;99011.91;;;8.15;83.91
19624;BME280;9959;49.798;9.928;2023-03-13T00:41:28;99010.41;;;8.26;82.83
19624;BME280;9959;49.798;9.928;2023-03-13T00:43:56;99005.19;;;8.51;81.27
19624;BME280;9959;49.798;9.928;2023-03-13T00:46:25;99004.63;;;8.42;81.19
19624;BME280;9959;49.798;9.928;2023-03-13T00:48:52;99005.88;;;8.39;81.45
19624;BME280;9959;49.798;9.928;2023-03-13T00:51:20;99003.75;;;8.48;80.92
19624;BME280;9959;49.798;9.928;2023-03-13T00:53:47;99001.94;;;8.29;82.04
19624;BME280;9959;49.798;9.928;2023-03-13T00:56:18;98991.50;;;8.59;80.30
19624;BME280;9959;49.798;9.928;2023-03-13T00:58:47;98991.59;;;8.45;80.83
19624;BME280;9959;49.798;9.928;2023-03-13T01:01:23;98996.34;;;8.43;80.79
19624;BME280;9959;49.798;9.928;2023-03-13T01:03:52;98981.38;;;8.61;79.69
19624;BME280;9959;49.798;9.928;2023-03-13T01:06:22;98980.00;;;8.83;78.12
19624;BME280;9959;49.798;9.928;2023-03-13T01:08:50;98976.19;;;8.97;77.26
19624;BME280;9959;49.798;9.928;2023-03-13T01:11:25;98968.63;;;8.88;77.80
19624;BME280;9959;49.798;9.928;2023-03-13T01:16:25;98971.66;;;8.66;78.99
19624;BME280;9959;49.798;9.928;2023-03-13T01:18:54;98967.78;;;8.56;80.00
19624;BME280;9959;49.798;9.928;2023-03-13T01:21:22;98958.44;;;8.65;79.02
19624;BME280;9959;49.798;9.928;2023-03-13T01:23:51;98966.69;;;8.70;78.67
19624;BME280;9959;49.798;9.928;2023-03-13T01:26:19;98963.78;;;8.71;78.12
19624;BME280;9959;49.798;9.928;2023-03-13T01:28:46;98956.19;;;8.62;79.13
19624;BME280;9959;49.798;9.928;2023-03-13T01:31:28;98950.38;;;8.65;78.68
19624;BME280;9959;49.798;9.928;2023-03-13T01:33:57;98951.00;;;8.67;78.37
19624;BME280;9959;49.798;9.928;2023-03-13T01:36:25;98937.56;;;8.67;78.34
19624;BME280;9959;49.798;9.928;2023-03-13T01:38:55;98938.59;;;8.66;78.49
19624;BME280;9959;49.798;9.928;2023-03-13T01:41:23;98925.97;;;8.73;77.95
19624;BME280;9959;49.798;9.928;2023-03-13T01:43:50;98931.19;;;8.93;76.81
19624;BME280;9959;49.798;9.928;2023-03-13T01:46:22;98927.88;;;8.91;76.54
19624;BME280;9959;49.798;9.928;2023-03-13T01:51:39;98928.09;;;8.89;76.86
19624;BME280;9959;49.798;9.928;2023-03-13T01:54:17;98925.38;;;8.96;76.48
19624;BME280;9959;49.798;9.928;2023-03-13T01:56:47;98923.38;;;8.85;77.04
19624;BME280;9959;49.798;9.928;2023-03-13T01:59:19;98906.13;;;8.74;77.45
19624;BME280;9959;49.798;9.928;2023-03-13T02:01:48;98910.16;;;8.83;76.74
19624;BME280;9959;49.798;9.928;2023-03-13T02:04:17;98905.22;;;8.80;77.04
19624;BME280;9959;49.798;9.928;2023-03-13T02:06:47;98898.16;;;8.86;76.68
19624;BME280;9959;49.798;9.928;2023-03-13T02:09:21;98903.28;;;8.69;77.61
19624;BME280;9959;49.798;9.928;2023-03-13T02:11:54;98895.81;;;8.71;77.41
19624;BME280;9959;49.798;9.928;2023-03-13T02:14:25;98883.34;;;8.76;77.11
19624;BME280;9959;49.798;9.928;2023-03-13T02:16:54;98881.34;;;8.72;77.38
19624;BME280;9959;49.798;9.928;2023-03-13T02:19:43;98881.63;;;8.64;77.60
19624;BME280;9959;49.798;9.928;2023-03-13T02:25:18;98873.72;;;8.44;78.93
19624;BME280;9959;49.798;9.928;2023-03-13T02:27:46;98857.22;;;8.40;79.24
19624;BME280;9959;49.798;9.928;2023-03-13T02:30:14;98864.84;;;8.43;79.04
19624;BME280;9959;49.798;9.928;2023-03-13T02:32:42;98867.56;;;8.37;79.29
19624;BME280;9959;49.798;9.928;2023-03-13T02:35:12;98850.97;;;8.46;79.14
19624;BME280;9959;49.798;9.928;2023-03-13T02:37:47;98854.34;;;8.29;80.00
19624;BME280;9959;49.798;9.928;2023-03-13T02:40:21;98847.03;;;8.18;80.97
19624;BME280;9959;49.798;9.928;2023-03-13T02:42:51;98843.31;;;8.12;81.02
19624;BME280;9959;49.798;9.928;2023-03-13T02:45:19;98838.03;;;7.99;81.70
19624;BME280;9959;49.798;9.928;2023-03-13T02:47:45;98824.50;;;7.87;82.38
19624;BME280;9959;49.798;9.928;2023-03-13T02:50:13;98827.28;;;7.99;81.80
19624;BME280;9959;49.798;9.928;2023-03-13T02:52:49;98829.03;;;7.87;82.49
19624;BME280;9959;49.798;9.928;2023-03-13T02:55:21;98830.72;;;7.81;83.20
19624;BME280;9959;49.798;9.928;2023-03-13T02:57:50;98822.44;;;7.82;83.16
19624;BME280;9959;49.798;9.928;2023-03-13T03:00:17;98814.41;;;7.82;82.79
19624;BME280;9959;49.798;9.928;2023-03-13T03:02:44;98815.88;;;7.72;83.58
19624;BME280;9959;49.798;9.928;2023-03-13T03:05:11;98809.25;;;7.81;83.13
19624;BME280;9959;49.798;9.928;2023-03-13T03:07:39;98815.88;;;7.78;83.39
19624;BME280;9959;49.798;9.928;2023-03-13T03:10:06;98820.38;;;7.85;82.77
19624;BME280;9959;49.798;9.928;2023-03-13T03:12:33;98818.50;;;7.92;82.26
19624;BME280;9959;49.798;9.928;2023-03-13T03:15:00;98817.22;;;7.94;82.13
19624;BME280;9959;49.798;9.928;2023-03-13T03:17:26;98804.97;;;8.05;81.58
19624;BME280;9959;49.798;9.928;2023-03-13T03:19:53;98809.13;;;8.01;81.60
19624;BME280;9959;49.798;9.928;2023-03-13T03:22:20;98815.28;;;8.08;82.88
19624;BME280;9959;49.798;9.928;2023-03-13T03:24:47;98815.25;;;8.14;82.63
19624;BME280;9959;49.798;9.928;2023-03-13T03:27:14;98810.31;;;8.11;82.97
19624;BME280;9959;49.798;9.928;2023-03-13T03:29:40;98808.63;;;8.17;84.12
19624;BME280;9959;49.798;9.928;2023-03-13T03:32:07;98804.59;;;8.01;85.79
19624;BME280;9959;49.798;9.928;2023-03-13T03:34:34;98803.03;;;7.87;88.62
19624;BME280;9959;49.798;9.928;2023-03-13T03:37:04;98802.81;;;7.89;88.11
19624;BME280;9959;49.798;9.928;2023-03-13T03:39:41;98792.63;;;8.04;85.68
19624;BME280;9959;49.798;9.928;2023-03-13T03:42:08;98791.81;;;7.97;88.01
19624;BME280;9959;49.798;9.928;2023-03-13T03:44:35;98790.97;;;8.03;86.14
19624;BME280;9959;49.798;9.928;2023-03-13T03:47:01;98793.56;;;7.85;90.57
19624;BME280;9959;49.798;9.928;2023-03-13T03:49:28;98792.34;;;7.80;91.39
19624;BME280;9959;49.798;9.928;2023-03-13T03:51:56;98777.03;;;7.88;90.48
19624;BME280;9959;49.798;9.928;2023-03-13T03:54:22;98775.34;;;7.93;90.46
19624;BME280;9959;49.798;9.928;2023-03-13T03:56:49;98770.88;;;7.87;91.44
19624;BME280;9959;49.798;9.928;2023-03-13T03:59:16;98763.47;;;7.82;93.04
19624;BME280;9959;49.798;9.928;2023-03-13T04:01:43;98758.94;;;7.76;94.59
19624;BME280;9959;49.798;9.928;2023-03-13T04:04:14;98750.28;;;7.74;94.29
19624;BME280;9959;49.798;9.928;2023-03-13T04:06:41;98750.78;;;7.65;94.59
19624;BME280;9959;49.798;9.928;2023-03-13T04:09:08;98749.97;;;7.64;95.88
19624;BME280;9959;49.798;9.928;2023-03-13T04:11:35;98742.97;;;7.63;96.41
19624;BME280;9959;49.798;9.928;2023-03-13T04:14:01;98742.75;;;7.65;95.70
19624;BME280;9959;49.798;9.928;2023-03-13T04:16:28;98736.38;;;7.59;97.86
19624;BME280;9959;49.798;9.928;2023-03-13T04:18:55;98728.88;;;7.68;95.95
19624;BME280;9959;49.798;9.928;2023-03-13T04:21:22;98727.31;;;7.60;97.48
19624;BME280;9959;49.798;9.928;2023-03-13T04:23:49;98715.38;;;7.56;97.81
19624;BME280;9959;49.798;9.928;2023-03-13T04:26:15;98718.25;;;7.55;97.89
19624;BME280;9959;49.798;9.928;2023-03-13T04:28:42;98723.59;;;7.61;97.83
19624;BME280;9959;49.798;9.928;2023-03-13T04:31:09;98717.19;;;7.62;98.58
19624;BME280;9959;49.798;9.928;2023-03-13T04:33:35;98717.78;;;7.64;97.83
19624;BME280;9959;49.798;9.928;2023-03-13T04:36:03;98722.06;;;7.72;97.09
19624;BME280;9959;49.798;9.928;2023-03-13T04:38:30;98717.28;;;7.80;96.79
19624;BME280;9959;49.798;9.928;2023-03-13T04:40:57;98716.91;;;8.02;94.63
19624;BME280;9959;49.798;9.928;2023-03-13T04:43:23;98724.09;;;8.08;94.18
19624;BME280;9959;49.798;9.928;2023-03-13T04:45:53;98719.50;;;8.15;94.07
19624;BME280;9959;49.798;9.928;2023-03-13T04:48:21;98711.31;;;8.03;98.04
19624;BME280;9959;49.798;9.928;2023-03-13T04:50:50;98708.00;;;8.08;97.32
19624;BME280;9959;49.798;9.928;2023-03-13T04:53:17;98696.09;;;8.22;95.52
19624;BME280;9959;49.798;9.928;2023-03-13T04:55:43;98695.13;;;8.17;97.13
19624;BME280;9959;49.798;9.928;2023-03-13T04:58:10;98683.84;;;8.08;98.45
19624;BME280;9959;49.798;9.928;2023-03-13T05:00:39;98688.03;;;8.22;97.96
19624;BME280;9959;49.798;9.928;2023-03-13T05:03:06;98694.91;;;8.18;98.73
19624;BME280;9959;49.798;9.928;2023-03-13T05:05:34;98692.63;;;8.46;96.36
19624;BME280;9959;49.798;9.928;2023-03-13T05:08:01;98692.28;;;8.36;97.32
19624;BME280;9959;49.798;9.928;2023-03-13T05:10:27;98692.47;;;8.41;97.95
19624;BME280;9959;49.798;9.928;2023-03-13T05:12:54;98700.19;;;8.49;97.42
19624;BME280;9959;49.798;9.928;2023-03-13T05:15:21;98689.41;;;8.56;98.18
19624;BME280;9959;49.798;9.928;2023-03-13T05:17:48;98684.41;;;8.41;99.31
19624;BME280;9959;49.798;9.928;2023-03-13T05:20:15;98684.09;;;8.49;98.59
19624;BME280;9959;49.798;9.928;2023-03-13T05:22:45;98685.69;;;8.57;98.56
19624;BME280;9959;49.798;9.928;2023-03-13T05:25:11;98684.09;;;8.49;99.71
19624;BME280;9959;49.798;9.928;2023-03-13T05:27:38;98679.63;;;8.43;100.00
19624;BME280;9959;49.798;9.928;2023-03-13T05:30:06;98674.00;;;8.70;99.41
19624;BME280;9959;49.798;9.928;2023-03-13T05:32:33;98673.00;;;8.64;100.00
19624;BME280;9959;49.798;9.928;2023-03-13T05:35:00;98675.69;;;8.64;100.00
19624;BME280;9959;49.798;9.928;2023-03-13T05:37:27;98674.59;;;8.72;99.69
19624;BME280;9959;49.798;9.928;2023-03-13T05:39:54;98672.25;;;8.75;99.35
19624;BME280;9959;49.798;9.928;2023-03-13T05:42:21;98666.53;;;8.72;100.00
19624;BME280;9959;49.798;9.928;2023-03-13T05:44:47;98650.31;;;8.78;99.99
19624;BME280;9959;49.798;9.928;2023-03-13T05:47:17;98651.59;;;8.94;98.46
19624;BME280;9959;49.798;9.928;2023-03-13T05:49:44;98660.41;;;8.83;99.54
19624;BME280;9959;49.798;9.928;2023-03-13T05:52:11;98651.91;;;8.86;99.87
19624;BME280;9959;49.798;9.928;2023-03-13T05:54:38;98641.16;;;8.86;99.96
19624;BME280;9959;49.798;9.928;2023-03-13T05:57:06;98647.88;;;8.95;99.11
19624;BME280;9959;49.798;9.928;2023-03-13T05:59:32;98655.59;;;9.03;98.38
19624;BME280;9959;49.798;9.928;2023-03-13T06:01:59;98654.56;;;9.04;98.33
19624;BME280;9959;49.798;9.928;2023-03-13T06:04:26;98646.16;;;9.01;99.92
19624;BME280;9959;49.798;9.928;2023-03-13T06:06:53;98644.75;;;8.98;100.00
19624;BME280;9959;49.798;9.928;2023-03-13T06:09:21;98633.16;;;8.98;100.00
19624;BME280;9959;49.798;9.928;2023-03-13T06:11:47;98631.16;;;8.93;100.00
19624;BME280;9959;49.798;9.928;2023-03-13T06:14:14;98633.28;;;9.03;100.00
19624;BME280;9959;49.798;9.928;2023-03-13T06:16:41;98622.16;;;9.18;100.00
19624;BME280;9959;49.798;9.928;2023-03-13T06:19:08;98621.63;;;9.09;100.00
19624;BME280;9959;49.798;9.928;2023-03-13T06:21:35;98621.63;;;9.09;100.00
19624;BME280;9959;49.798;9.928;2023-03-13T06:24:01;98619.31;;;9.12;100.00
19624;BME280;9959;49.798;9.928;2023-03-13T06:26:28;98613.13;;;9.12;100.00
19624;BME280;9959;49.798;9.928;2023-03-13T06:28:55;98623.78;;;9.19;100.00
19624;BME280;9959;49.798;9.928;2023-03-13T06:31:22;98624.53;;;9.26;100.00
19624;BME280;9959;49.798;9.928;2023-03-13T06:33:55;98622.66;;;9.26;100.00
19624;BME280;9959;49.798;9.928;2023-03-13T06:36:23;98623.88;;;9.42;100.00
19624;BME280;9959;49.798;9.928;2023-03-13T06:38:50;98632.25;;;9.34;100.00
19624;BME280;9959;49.798;9.928;2023-03-13T06:41:16;98638.72;;;9.44;100.00
19624;BME280;9959;49.798;9.928;2023-03-13T06:43:43;98633.63;;;9.55;100.00
19624;BME280;9959;49.798;9.928;2023-03-13T06:46:18;98635.13;;;9.62;99.50
19624;BME280;9959;49.798;9.928;2023-03-13T06:48:56;98634.78;;;9.59;100.00
19624;BME280;9959;49.798;9.928;2023-03-13T06:51:23;98633.94;;;9.58;99.93
19624;BME280;9959;49.798;9.928;2023-03-13T06:53:51;98636.31;;;9.66;99.39
19624;BME280;9959;49.798;9.928;2023-03-13T06:56:18;98620.00;;;9.79;97.78
19624;BME280;9959;49.798;9.928;2023-03-13T06:58:49;98600.78;;;9.88;96.84
19624;BME280;9959;49.798;9.928;2023-03-13T07:01:16;98601.97;;;9.92;96.33
19624;BME280;9959;49.798;9.928;2023-03-13T07:03:48;98596.59;;;9.92;96.69
19624;BME280;9959;49.798;9.928;2023-03-13T07:06:16;98598.94;;;10.00;95.08
19624;BME280;9959;49.798;9.928;2023-03-13T07:08:44;98599.66;;;10.07;94.47
19624;BME280;9959;49.798;9.928;2023-03-13T07:11:12;98589.47;;;10.09;94.72
19624;BME280;9959;49.798;9.928;2023-03-13T07:13:40;98575.56;;;10.12;93.69
19624;BME280;9959;49.798;9.928;2023-03-13T07:16:10;98590.88;;;10.11;93.67
19624;BME280;9959;49.798;9.928;2023-03-13T07:18:38;98589.25;;;10.22;93.82
19624;BME280;9959;49.798;9.928;2023-03-13T07:21:08;98605.63;;;10.21;93.97
19624;BME280;9959;49.798;9.928;2023-03-13T07:23:36;98604.69;;;10.27;93.95
19624;BME280;9959;49.798;9.928;2023-03-13T07:26:06;98614.19;;;10.29;94.18
19624;BME280;9959;49.798;9.928;2023-03-13T07:28:34;98614.19;;;10.29;94.17
19624;BME280;9959;49.798;9.928;2023-03-13T07:31:09;98617.47;;;10.31;94.20
19624;BME280;9959;49.798;9.928;2023-03-13T07:33:37;98615.34;;;10.33;94.23
19624;BME280;9959;49.798;9.928;2023-03-13T07:36:04;98603.97;;;10.43;94.63
19624;BME280;9959;49.798;9.928;2023-03-13T07:38:31;98607.59;;;10.48;94.47
19624;BME280;9959;49.798;9.928;2023-03-13T07:40:58;98609.13;;;10.56;93.70
19624;BME280;9959;49.798;9.928;2023-03-13T07:43:25;98607.81;;;10.59;93.73
19624;BME280;9959;49.798;9.928;2023-03-13T07:45:57;98598.56;;;10.66;93.38
19624;BME280;9959;49.798;9.928;2023-03-13T07:48:28;98607.56;;;10.72;93.31
19624;BME280;9959;49.798;9.928;2023-03-13T07:50:56;98599.09;;;10.80;93.21
19624;BME280;9959;49.798;9.928;2023-03-13T07:53:23;98601.09;;;10.84;92.80
19624;BME280;9959;49.798;9.928;2023-03-13T07:58:27;98583.03;;;10.85;92.89
19624;BME280;9959;49.798;9.928;2023-03-13T08:00:55;98582.69;;;10.93;92.43
19624;BME280;9959;49.798;9.928;2023-03-13T08:03:22;98589.28;;;11.02;92.08
19624;BME280;9959;49.798;9.928;2023-03-13T08:08:24;98591.81;;;11.21;91.37
19624;BME280;9959;49.798;9.928;2023-03-13T08:10:50;98599.50;;;11.29;90.95
19624;BME280;9959;49.798;9.928;2023-03-13T08:13:17;98601.94;;;11.30;91.11
19624;BME280;9959;49.798;9.928;2023-03-13T08:15:44;98598.53;;;11.35;90.64
19624;BME280;9959;49.798;9.928;2023-03-13T08:18:10;98606.75;;;11.28;91.57
19624;BME280;9959;49.798;9.928;2023-03-13T08:20:37;98603.00;;;11.29;91.20
19624;BME280;9959;49.798;9.928;2023-03-13T08:23:04;98604.97;;;11.34;91.17
19624;BME280;9959;49.798;9.928;2023-03-13T08:25:31;98604.03;;;11.40;90.77
19624;BME280;9959;49.798;9.928;2023-03-13T08:27:58;98602.53;;;11.49;90.94
19624;BME280;9959;49.798;9.928;2023-03-13T08:30:27;98619.06;;;11.52;90.36
19624;BME280;9959;49.798;9.928;2023-03-13T08:32:54;98619.06;;;11.52;90.32
19624;BME280;9959;49.798;9.928;2023-03-13T08:35:21;98614.59;;;11.58;90.41
19624;BME280;9959;49.798;9.928;2023-03-13T08:37:48;98607.97;;;11.66;89.73
19624;BME280;9959;49.798;9.928;2023-03-13T08:40:14;98609.13;;;11.70;89.88
19624;BME280;9959;49.798;9.928;2023-03-13T08:42:41;98613.22;;;11.72;89.81
19624;BME280;9959;49.798;9.928;2023-03-13T08:45:08;98594.28;;;11.84;89.34
19624;BME280;9959;49.798;9.928;2023-03-13T08:47:35;98608.66;;;11.90;89.14
19624;BME280;9959;49.798;9.928;2023-03-13T08:50:02;98601.63;;;11.89;88.95
19624;BME280;9959;49.798;9.928;2023-03-13T08:52:29;98601.63;;;11.89;89.44
19624;BME280;9959;49.798;9.928;2023-03-13T08:54:56;98600.47;;;11.84;89.28
19624;BME280;9959;49.798;9.928;2023-03-13T08:57:22;98598.38;;;11.86;89.58
19624;BME280;9959;49.798;9.928;2023-03-13T08:59:49;98595.25;;;11.95;89.05
19624;BME280;9959;49.798;9.928;2023-03-13T09:02:17;98609.81;;;11.94;88.99
19624;BME280;9959;49.798;9.928;2023-03-13T09:04:46;98592.56;;;11.95;89.26
19624;BME280;9959;49.798;9.928;2023-03-13T09:07:14;98590.00;;;12.05;88.46
19624;BME280;9959;49.798;9.928;2023-03-13T09:09:42;98591.72;;;12.11;88.36
19624;BME280;9959;49.798;9.928;2023-03-13T09:12:10;98599.31;;;12.14;87.98
19624;BME280;9959;49.798;9.928;2023-03-13T09:14:55;98615.69;;;12.24;87.58
19624;BME280;9959;49.798;9.928;2023-03-13T09:17:21;98603.91;;;12.30;87.24
19624;BME280;9959;49.798;9.928;2023-03-13T09:19:48;98603.81;;;12.25;87.83
19624;BME280;9959;49.798;9.928;2023-03-13T09:22:22;98613.06;;;12.29;87.38
19624;BME280;9959;49.798;9.928;2023-03-13T09:24:49;98610.59;;;12.28;87.84
19624;BME280;9959;49.798;9.928;2023-03-13T09:27:15;98609.91;;;12.37;87.52
19624;BME280;9959;49.798;9.928;2023-03-13T09:29:42;98617.94;;;12.32;87.70
19624;BME280;9959;49.798;9.928;2023-03-13T09:32:09;98614.94;;;12.29;87.85
19624;BME280;9959;49.798;9.928;2023-03-13T09:34:36;98612.16;;;12.24;88.86
19624;BME280;9959;49.798;9.928;2023-03-13T09:37:03;98610.03;;;12.26;89.32
19624;BME280;9959;49.798;9.928;2023-03-13T09:39:30;98607.22;;;12.37;87.88
19624;BME280;9959;49.798;9.928;2023-03-13T09:44:39;98581.28;;;12.36;87.62
19624;BME280;9959;49.798;9.928;2023-03-13T09:47:36;98590.59;;;12.45;87.32
19624;BME280;9959;49.798;9.928;2023-03-13T09:50:28;98586.81;;;12.46;86.42
19624;BME280;9959;49.798;9.928;2023-03-13T09:53:12;98583.88;;;12.48;86.56
19624;BME280;9959;49.798;9.928;2023-03-13T09:55:42;98588.59;;;12.58;85.74
19624;BME280;9959;49.798;9.928;2023-03-13T09:58:22;98587.00;;;12.62;85.52
19624;BME280;9959;49.798;9.928;2023-03-13T10:00:53;98576.09;;;12.73;84.61
19624;BME280;9959;49.798;9.928;2023-03-13T10:03:26;98576.41;;;12.77;84.63
19624;BME280;9959;49.798;9.928;2023-03-13T10:05:57;98556.84;;;12.92;83.79
19624;BME280;9959;49.798;9.928;2023-03-13T10:08:35;98570.59;;;12.90;83.71
19624;BME280;9959;49.798;9.928;2023-03-13T10:11:21;98562.00;;;12.93;83.64
19624;BME280;9959;49.798;9.928;2023-03-13T10:16:43;98549.34;;;12.99;82.85
19624;BME280;9959;49.798;9.928;2023-03-13T10:19:15;98546.34;;;12.95;83.25
19624;BME280;9959;49.798;9.928;2023-03-13T10:21:46;98542.13;;;13.04;82.96
19624;BME280;9959;49.798;9.928;2023-03-13T10:24:53;98551.09;;;13.10;82.68
19624;BME280;9959;49.798;9.928;2023-03-13T10:27:20;98548.19;;;13.16;82.21
19624;BME280;9959;49.798;9.928;2023-03-13T10:29:47;98547.19;;;13.23;81.65
19624;BME280;9959;49.798;9.928;2023-03-13T10:32:15;98553.59;;;13.16;82.42
19624;BME280;9959;49.798;9.928;2023-03-13T10:34:55;98554.63;;;13.10;82.95
19624;BME280;9959;49.798;9.928;2023-03-13T10:42:31;98521.06;;;13.65;80.11
19624;BME280;9959;49.798;9.928;2023-03-13T10:45:05;98508.69;;;14.27;77.96
19624;BME280;9959;49.798;9.928;2023-03-13T10:47:35;98507.00;;;14.63;75.86
19624;BME280;9959;49.798;9.928;2023-03-13T10:50:03;98483.16;;;14.65;74.99
19624;BME280;9959;49.798;9.928;2023-03-13T10:52:41;98487.59;;;15.11;73.71
19624;BME280;9959;49.798;9.928;2023-03-13T10:55:20;98492.94;;;14.81;73.76
19624;BME280;9959;49.798;9.928;2023-03-13T11:00:36;98495.75;;;15.82;70.37
19624;BME280;9959;49.798;9.928;2023-03-13T11:03:06;98502.81;;;15.68;70.15
19624;BME280;9959;49.798;9.928;2023-03-13T11:05:40;98493.53;;;16.00;68.75
19624;BME280;9959;49.798;9.928;2023-03-13T11:08:26;98489.66;;;16.36;67.62
19624;BME280;9959;49.798;9.928;2023-03-13T11:13:35;98478.44;;;16.48;67.04
19624;BME280;9959;49.798;9.928;2023-03-13T11:21:23;98456.38;;;16.65;64.49
19624;BME280;9959;49.798;9.928;2023-03-13T11:31:38;98474.44;;;16.35;65.45
19624;BME280;9959;49.798;9.928;2023-03-13T11:37:10;98448.19;;;15.90;67.81
19624;BME280;9959;49.798;9.928;2023-03-13T11:39:49;98451.47;;;15.87;68.03
19624;BME280;9959;49.798;9.928;2023-03-13T11:45:15;98443.28;;;16.02;67.47
19624;BME280;9959;49.798;9.928;2023-03-13T11:50:27;98422.97;;;18.14;59.28
19624;BME280;9959;49.798;9.928;2023-03-13T11:53:14;98437.41;;;18.81;57.28
19624;BME280;9959;49.798;9.928;2023-03-13T11:58:48;98415.53;;;19.18;55.22
19624;BME280;9959;49.798;9.928;2023-03-13T12:01:23;98408.91;;;19.57;53.01
19624;BME280;9959;49.798;9.928;2023-03-13T12:06:45;98386.41;;;19.14;53.25
19624;BME280;9959;49.798;9.928;2023-03-13T12:09:15;98402.66;;;19.98;52.26
19624;BME280;9959;49.798;9.928;2023-03-13T12:11:53;98388.75;;;20.63;50.27
19624;BME280;9959;49.798;9.928;2023-03-13T12:14:38;98395.28;;;19.84;52.18
19624;BME280;9959;49.798;9.928;2023-03-13T12:20:15;98380.09;;;18.81;55.01
19624;BME280;9959;49.798;9.928;2023-03-13T12:36:39;98338.75;;;20.93;48.01
19624;BME280;9959;49.798;9.928;2023-03-13T12:41:43;98320.84;;;20.65;49.30
19624;BME280;9959;49.798;9.928;2023-03-13T12:44:17;98326.00;;;21.33;46.83
19624;BME280;9959;49.798;9.928;2023-03-13T12:46:46;98314.38;;;21.27;47.62
19624;BME280;9959;49.798;9.928;2023-03-13T12:49:33;98289.06;;;21.70;45.59
19624;BME280;9959;49.798;9.928;2023-03-13T12:55:39;98295.06;;;22.81;42.76
19624;BME280;9959;49.798;9.928;2023-03-13T12:58:24;98277.06;;;23.09;43.10
19624;BME280;9959;49.798;9.928;2023-03-13T13:00:54;98279.84;;;23.01;42.46
19624;BME280;9959;49.798;9.928;2023-03-13T13:12:02;98263.31;;;21.32;45.70
19624;BME280;9959;49.798;9.928;2023-03-13T13:17:13;98246.94;;;20.06;48.63
19624;BME280;9959;49.798;9.928;2023-03-13T13:19:46;98251.81;;;20.32;48.94
19624;BME280;9959;49.798;9.928;2023-03-13T13:27:54;98233.66;;;20.00;49.55
19624;BME280;9959;49.798;9.928;2023-03-13T13:32:53;98233.00;;;18.98;51.94
19624;BME280;9959;49.798;9.928;2023-03-13T13:35:25;98221.16;;;19.03;52.06
19624;BME280;9959;49.798;9.928;2023-03-13T13:40:30;98215.81;;;18.84;51.96
19624;BME280;9959;49.798;9.928;2023-03-13T13:45:34;98206.28;;;18.49;53.73
19624;BME280;9959;49.798;9.928;2023-03-13T13:53:32;98206.69;;;18.75;52.60
19624;BME280;9959;49.798;9.928;2023-03-13T13:58:57;98171.03;;;18.85;52.04
19624;BME280;9959;49.798;9.928;2023-03-13T14:01:25;98164.16;;;19.01;51.69
19624;BME280;9959;49.798;9.928;2023-03-13T14:06:33;98156.75;;;20.51;47.26
19624;BME280;9959;49.798;9.928;2023-03-13T14:09:14;98164.75;;;19.53;50.45
19624;BME280;9959;49.798;9.928;2023-03-13T14:11:45;98159.00;;;19.13;51.06
19624;BME280;9959;49.798;9.928;2023-03-13T14:16:42;98149.19;;;19.26;50.93
19624;BME280;9959;49.798;9.928;2023-03-13T14:19:29;98135.75;;;20.69;47.24
19624;BME280;9959;49.798;9.928;2023-03-13T14:22:05;98128.03;;;20.40;46.52
19624;BME280;9959;49.798;9.928;2023-03-13T14:24:32;98116.16;;;22.53;43.19
19624;BME280;9959;49.798;9.928;2023-03-13T14:26:59;98089.91;;;23.19;40.65
19624;BME280;9959;49.798;9.928;2023-03-13T14:29:27;98098.06;;;22.52;42.20
19624;BME280;9959;49.798;9.928;2023-03-13T14:34:26;98074.00;;;24.86;38.05
19624;BME280;9959;49.798;9.928;2023-03-13T14:39:44;98072.44;;;23.86;38.77
19624;BME280;9959;49.798;9.928;2023-03-13T14:42:13;98044.47;;;24.75;37.40
19624;BME280;9959;49.798;9.928;2023-03-13T14:44:41;98059.16;;;24.67;38.00
19624;BME280;9959;49.798;9.928;2023-03-13T14:47:28;98039.25;;;25.46;35.94
19624;BME280;9959;49.798;9.928;2023-03-13T14:52:29;98033.66;;;24.33;38.28
19624;BME280;9959;49.798;9.928;2023-03-13T14:54:58;98017.16;;;24.12;38.62
19624;BME280;9959;49.798;9.928;2023-03-13T14:57:28;98023.94;;;24.15;38.23
19624;BME280;9959;49.798;9.928;2023-03-13T15:02:27;98006.72;;;24.06;38.97
19624;BME280;9959;49.798;9.928;2023-03-13T15:07:46;97977.44;;;23.56;39.45
19624;BME280;9959;49.798;9.928;2023-03-13T15:10:39;97988.53;;;23.80;39.45
19624;BME280;9959;49.798;9.928;2023-03-13T15:13:22;97971.59;;;23.90;38.72
19624;BME280;9959;49.798;9.928;2023-03-13T15:15:51;97962.09;;;24.57;37.60
19624;BME280;9959;49.798;9.928;2023-03-13T15:18:23;97964.25;;;24.88;37.07
19624;BME280;9959;49.798;9.928;2023-03-13T15:23:24;97955.94;;;22.66;40.70
19624;BME280;9959;49.798;9.928;2023-03-13T15:25:51;97945.56;;;24.57;37.21
19624;BME280;9959;49.798;9.928;2023-03-13T15:28:20;97954.63;;;23.76;38.57
19624;BME280;9959;49.798;9.928;2023-03-13T15:30:50;97957.00;;;25.08;36.42
19624;BME280;9959;49.798;9.928;2023-03-13T15:33:19;97934.56;;;24.33;36.87
19624;BME280;9959;49.798;9.928;2023-03-13T15:35:48;97915.72;;;24.84;36.24
19624;BME280;9959;49.798;9.928;2023-03-13T15:38:21;97927.13;;;23.88;37.83
19624;BME280;9959;49.798;9.928;2023-03-13T15:40:51;97927.06;;;24.21;37.76
19624;BME280;9959;49.798;9.928;2023-03-13T15:43:19;97925.84;;;24.31;37.25